Time;durP1;ratioP1;P1;durP2;ratioP2;P2;SDS_P1;SDS_P2;PMS_P1;PMS_P2;Temp;Humidity;BMP_temperature;BMP_pressure;BME280_temperature;BME280_humidity;BME280_pressure;Samples;Min_cycle;Max_cycle;Signal;HPM_P1;HPM_P2
2021/09/01 00:02:25;;;;;;;3.90;1.80;;;18.50;99.90;;;;;;6246486;22;20226;-91
2021/09/01 00:04:58;;;;;;;5.10;2.20;;;18.70;99.90;;;;;;6244442;23;20156;-91
2021/09/01 00:07:36;;;;;;;3.83;1.90;;;19.00;99.90;;;;;;6243436;23;20239;-91
2021/09/01 00:10:09;;;;;;;3.20;1.97;;;19.10;99.90;;;;;;6241969;23;20218;-91
2021/09/01 00:12:42;;;;;;;4.43;2.27;;;19.40;99.90;;;;;;6233164;23;20173;-91
2021/09/01 00:15:28;;;;;;;4.80;1.70;;;19.50;99.90;;;;;;6243402;23;20164;-91
2021/09/01 00:18:04;;;;;;;4.40;2.10;;;19.50;99.90;;;;;;6238902;23;20203;-91
2021/09/01 00:20:39;;;;;;;3.40;1.80;;;19.40;99.90;;;;;;6231207;23;20259;-91
2021/09/01 00:26:02;;;;;;;2.63;1.60;;;19.50;99.90;;;;;;6237901;23;20180;-92
2021/09/01 00:28:41;;;;;;;2.60;1.90;;;19.60;99.90;;;;;;6238070;23;20175;-91
2021/09/01 00:31:14;;;;;;;2.53;1.73;;;19.80;99.90;;;;;;6240069;23;20198;-91
2021/09/01 00:33:55;;;;;;;2.93;1.93;;;19.80;99.90;;;;;;6237467;23;20182;-90
2021/09/01 00:36:27;;;;;;;4.17;2.10;;;19.60;99.90;;;;;;6232157;23;20176;-91
2021/09/01 00:38:58;;;;;;;2.60;1.60;;;19.50;99.90;;;;;;6229696;23;20223;-90
2021/09/01 00:41:32;;;;;;;2.37;1.73;;;19.80;99.90;;;;;;6231389;23;20188;-90
2021/09/01 00:44:21;;;;;;;4.30;1.67;;;19.80;99.90;;;;;;6225090;23;20187;-90
2021/09/01 00:46:52;;;;;;;2.63;1.50;;;19.70;99.90;;;;;;6224538;23;20246;-91
2021/09/01 00:49:27;;;;;;;4.30;2.00;;;19.60;99.90;;;;;;6222434;23;20259;-91
2021/09/01 00:51:59;;;;;;;4.07;1.93;;;19.40;99.90;;;;;;6222356;23;20627;-91
2021/09/01 00:54:33;;;;;;;2.93;1.70;;;19.20;99.90;;;;;;6222095;23;20183;-92
2021/09/01 00:57:06;;;;;;;4.20;2.23;;;18.90;99.90;;;;;;6222453;23;20180;-91
2021/09/01 00:59:40;;;;;;;2.60;1.77;;;18.60;99.90;;;;;;6220177;23;20226;-92
2021/09/01 01:02:13;;;;;;;2.10;1.67;;;18.50;99.90;;;;;;6248800;23;20238;-92
2021/09/01 01:04:52;;;;;;;3.47;1.80;;;18.40;99.90;;;;;;6251677;23;20199;-90
2021/09/01 01:07:27;;;;;;;3.77;1.70;;;18.30;99.90;;;;;;6252354;23;20171;-91
2021/09/01 01:09:58;;;;;;;2.10;1.60;;;18.20;99.90;;;;;;6202856;23;20175;-91
2021/09/01 01:12:32;;;;;;;4.77;1.73;;;18.20;99.90;;;;;;6252490;22;20226;-91
2021/09/01 01:15:06;;;;;;;3.20;1.90;;;18.10;99.90;;;;;;6239184;23;20176;-92
2021/09/01 01:17:38;;;;;;;6.53;1.90;;;17.90;99.90;;;;;;6232415;23;20192;-91
2021/09/01 01:20:13;;;;;;;4.80;2.10;;;18.00;99.90;;;;;;6239493;23;20164;-92
2021/09/01 01:22:44;;;;;;;3.47;1.80;;;17.90;99.90;;;;;;6230811;23;20183;-92
2021/09/01 01:25:46;;;;;;;3.60;2.20;;;17.80;99.90;;;;;;6222240;23;20176;-92
2021/09/01 01:28:18;;;;;;;2.00;1.53;;;17.80;99.90;;;;;;6222292;23;20175;-91
2021/09/01 01:30:48;;;;;;;10.93;1.90;;;17.70;99.90;;;;;;6221429;23;20239;-91
2021/09/01 01:33:20;;;;;;;2.23;1.57;;;17.60;99.90;;;;;;6221645;23;20188;-91
2021/09/01 01:35:52;;;;;;;2.67;1.70;;;17.60;99.90;;;;;;6213365;23;20232;-92
2021/09/01 01:41:03;;;;;;;4.27;2.10;;;17.40;99.90;;;;;;6328176;22;20233;-94
2021/09/01 01:43:36;;;;;;;2.50;1.67;;;17.20;99.90;;;;;;6334392;22;20222;-91
2021/09/01 01:46:08;;;;;;;2.90;1.80;;;17.10;99.90;;;;;;6334758;22;20158;-92
2021/09/01 01:48:39;;;;;;;2.80;1.70;;;17.10;99.90;;;;;;6332840;22;20224;-91
2021/09/01 01:51:12;;;;;;;3.77;1.90;;;17.00;99.90;;;;;;6332018;22;20166;-91
2021/09/01 01:53:44;;;;;;;2.73;1.50;;;17.00;99.90;;;;;;6304451;22;20170;-91
2021/09/01 01:56:17;;;;;;;2.57;1.70;;;16.90;99.90;;;;;;6330709;22;20163;-91
2021/09/01 01:58:49;;;;;;;2.73;1.60;;;16.90;99.90;;;;;;6328962;22;20206;-91
2021/09/01 02:01:20;;;;;;;3.50;1.87;;;16.80;99.90;;;;;;6330565;22;20180;-90
2021/09/01 02:06:37;;;;;;;2.63;1.60;;;16.70;99.90;;;;;;6333786;22;20162;-90
2021/09/01 02:09:09;;;;;;;1.67;1.37;;;16.60;99.90;;;;;;6335279;22;20205;-89
2021/09/01 02:11:43;;;;;;;2.60;1.60;;;16.50;99.90;;;;;;6333087;22;20246;-88
2021/09/01 02:14:18;;;;;;;3.03;1.77;;;16.50;99.90;;;;;;6332881;22;20181;-89
2021/09/01 02:16:50;;;;;;;5.50;2.23;;;16.40;99.90;;;;;;6306284;22;20165;-90
2021/09/01 02:19:28;;;;;;;2.00;1.47;;;16.40;99.90;;;;;;6331982;22;20206;-90
2021/09/01 02:22:00;;;;;;;2.87;1.67;;;16.30;99.90;;;;;;6332707;22;20161;-88
2021/09/01 02:24:33;;;;;;;2.13;1.60;;;16.20;99.90;;;;;;6333407;22;20174;-90
2021/09/01 02:27:11;;;;;;;2.40;1.70;;;16.10;99.90;;;;;;6307845;22;20178;-90
2021/09/01 02:29:49;;;;;;;4.10;1.47;;;16.00;99.90;;;;;;6306198;22;20181;-89
2021/09/01 02:32:24;;;;;;;3.60;1.60;;;15.80;99.90;;;;;;6327581;22;20162;-89
2021/09/01 02:34:58;;;;;;;2.63;1.63;;;15.70;99.90;;;;;;6331676;22;20167;-91
2021/09/01 02:37:34;;;;;;;3.30;1.73;;;15.60;99.90;;;;;;6332304;22;20174;-92
2021/09/01 02:40:06;;;;;;;2.13;1.50;;;15.40;99.90;;;;;;6329058;22;20206;-91
2021/09/01 02:45:22;;;;;;;3.63;1.73;;;15.30;99.90;;;;;;6235855;22;20227;-92
2021/09/01 02:47:53;;;;;;;1.60;1.17;;;15.10;99.90;;;;;;6236539;23;20176;-92
2021/09/01 02:50:26;;;;;;;4.20;1.63;;;15.10;99.90;;;;;;6234559;23;20219;-92
2021/09/01 02:52:58;;;;;;;3.37;2.00;;;15.00;99.90;;;;;;6236586;23;20188;-91
2021/09/01 02:55:32;;;;;;;2.80;1.50;;;14.90;99.90;;;;;;6228093;23;20202;-92
2021/09/01 02:58:05;;;;;;;3.67;1.60;;;14.80;99.90;;;;;;6231995;23;20199;-92
2021/09/01 03:08:45;;;;;;;3.33;1.83;;;14.40;99.90;;;;;;6261018;22;20210;-90
2021/09/01 03:11:18;;;;;;;1.70;1.40;;;14.30;99.90;;;;;;6268038;22;20194;-91
2021/09/01 03:16:32;;;;;;;4.73;1.80;;;14.20;99.90;;;;;;6217654;22;20270;-91
2021/09/01 03:19:04;;;;;;;2.43;1.63;;;14.00;99.90;;;;;;6202378;23;20193;-90
2021/09/01 03:27:04;;;;;;;4.27;2.03;;;13.80;99.90;;;;;;6236985;22;20187;-92
2021/09/01 03:29:41;;;;;;;5.30;2.27;;;13.70;99.90;;;;;;6237542;23;20182;-90
2021/09/01 03:32:13;;;;;;;5.60;1.80;;;13.70;99.90;;;;;;6231579;23;20170;-90
2021/09/01 03:34:45;;;;;;;3.40;1.70;;;13.60;99.90;;;;;;6230649;23;20248;-91
2021/09/01 03:37:21;;;;;;;4.13;1.70;;;13.50;99.90;;;;;;6233678;23;20169;-92
2021/09/01 03:40:02;;;;;;;3.10;1.57;;;13.50;99.90;;;;;;6231765;23;20203;-92
2021/09/01 03:42:42;;;;;;;2.40;1.63;;;13.40;99.90;;;;;;6230068;23;20179;-92
2021/09/01 03:45:15;;;;;;;2.70;1.87;;;13.40;99.90;;;;;;6234193;23;20183;-92
2021/09/01 03:47:46;;;;;;;5.13;2.13;;;13.30;99.90;;;;;;6230015;23;20165;-93
2021/09/01 03:53:03;;;;;;;2.43;1.77;;;13.20;99.90;;;;;;6230736;23;20176;-92
2021/09/01 03:55:34;;;;;;;2.33;1.60;;;13.20;99.90;;;;;;6243987;22;20224;-91
2021/09/01 03:58:14;;;;;;;4.87;1.97;;;13.10;99.90;;;;;;6267187;22;20170;-91
2021/09/01 04:00:46;;;;;;;2.70;1.60;;;13.00;99.90;;;;;;6267373;22;20191;-91
2021/09/01 04:03:18;;;;;;;2.23;1.63;;;13.00;99.90;;;;;;6266803;22;20156;-92
2021/09/01 04:05:52;;;;;;;6.07;2.50;;;12.90;99.90;;;;;;6263415;23;20159;-91
2021/09/01 04:08:32;;;;;;;5.40;2.27;;;12.90;99.90;;;;;;6266561;22;20163;-90
2021/09/01 04:11:13;;;;;;;4.03;1.97;;;12.90;99.90;;;;;;6243142;23;20184;-91
2021/09/01 04:13:46;;;;;;;2.77;1.80;;;12.80;99.90;;;;;;6255148;23;20175;-91
2021/09/01 04:16:18;;;;;;;4.50;1.90;;;12.80;99.90;;;;;;6246170;23;20163;-91
2021/09/01 04:18:49;;;;;;;2.40;1.53;;;12.80;99.90;;;;;;6245274;23;20186;-90
2021/09/01 04:21:21;;;;;;;2.47;1.70;;;12.70;99.90;;;;;;6227635;23;20190;-89
2021/09/01 04:23:53;;;;;;;3.07;1.77;;;12.70;99.90;;;;;;6260509;23;20190;-90
2021/09/01 04:26:29;;;;;;;4.50;1.63;;;12.70;99.90;;;;;;6261601;23;20318;-89
2021/09/01 04:29:03;;;;;;;4.27;2.03;;;12.60;99.90;;;;;;6230555;23;20172;-90
2021/09/01 04:31:34;;;;;;;2.63;1.90;;;12.60;99.90;;;;;;6253797;23;20226;-92
2021/09/01 04:34:06;;;;;;;2.53;1.90;;;12.50;99.90;;;;;;6251337;23;20186;-90
2021/09/01 04:36:38;;;;;;;2.57;1.63;;;12.50;99.90;;;;;;6250079;23;20183;-89
2021/09/01 04:39:09;;;;;;;2.90;1.80;;;12.50;99.90;;;;;;6260477;23;20226;-90
2021/09/01 04:41:46;;;;;;;3.80;2.13;;;12.40;99.90;;;;;;6267747;23;20206;-89
2021/09/01 04:44:32;;;;;;;3.77;1.70;;;12.40;99.90;;;;;;6267693;23;20203;-89
2021/09/01 04:47:03;;;;;;;5.90;1.90;;;12.30;99.90;;;;;;6259478;23;20238;-90
2021/09/01 04:49:35;;;;;;;3.77;2.10;;;12.20;99.90;;;;;;6265854;23;20226;-90
2021/09/01 04:52:07;;;;;;;2.77;1.83;;;12.20;99.90;;;;;;6253682;23;20198;-90
2021/09/01 04:54:38;;;;;;;3.30;1.73;;;12.10;99.90;;;;;;6253902;23;20171;-90
2021/09/01 04:57:09;;;;;;;2.83;2.03;;;12.10;99.90;;;;;;6252615;23;20188;-90
2021/09/01 04:59:43;;;;;;;3.40;2.13;;;12.00;99.90;;;;;;6253743;23;20210;-91
2021/09/01 05:02:14;;;;;;;3.17;1.80;;;12.00;99.90;;;;;;6251062;23;20230;-90
2021/09/01 05:04:46;;;;;;;2.90;1.87;;;12.00;99.90;;;;;;6225694;23;20183;-90
2021/09/01 05:07:18;;;;;;;3.63;2.00;;;11.90;99.90;;;;;;6252559;23;20506;-90
2021/09/01 05:09:51;;;;;;;4.83;2.23;;;11.80;99.90;;;;;;6203105;23;20188;-89
2021/09/01 05:12:26;;;;;;;2.43;1.80;;;11.90;99.90;;;;;;6251768;23;20196;-90
2021/09/01 05:15:00;;;;;;;3.20;2.17;;;11.80;99.90;;;;;;6253689;23;20167;-89
2021/09/01 05:17:32;;;;;;;6.03;2.07;;;11.90;99.90;;;;;;6254809;23;20164;-90
2021/09/01 05:20:03;;;;;;;4.10;2.20;;;11.80;99.90;;;;;;6228814;23;20208;-90
2021/09/01 05:22:37;;;;;;;5.33;2.20;;;11.80;99.90;;;;;;6254098;23;20271;-89
2021/09/01 05:25:10;;;;;;;3.37;2.20;;;11.70;99.90;;;;;;6256202;23;20174;-90
2021/09/01 05:27:43;;;;;;;2.97;2.00;;;11.80;99.90;;;;;;6258784;23;20168;-89
2021/09/01 05:30:21;;;;;;;3.00;2.03;;;11.70;99.90;;;;;;6264771;23;20156;-90
2021/09/01 05:32:54;;;;;;;2.77;2.03;;;11.70;99.90;;;;;;6273020;22;20283;-89
2021/09/01 05:35:26;;;;;;;4.30;2.10;;;11.60;99.90;;;;;;6273749;22;20186;-89
2021/09/01 05:38:00;;;;;;;3.37;1.93;;;11.60;99.90;;;;;;6272870;22;20156;-90
2021/09/01 05:40:34;;;;;;;4.57;2.30;;;11.60;99.90;;;;;;6260925;23;20210;-90
2021/09/01 05:43:06;;;;;;;2.90;2.27;;;11.50;99.90;;;;;;6255842;23;20196;-90
2021/09/01 05:45:41;;;;;;;4.67;1.80;;;11.50;99.90;;;;;;6256036;23;20172;-90
2021/09/01 05:48:13;;;;;;;3.67;1.67;;;11.50;99.90;;;;;;6260344;23;20175;-90
2021/09/01 05:50:45;;;;;;;2.77;1.80;;;11.50;99.90;;;;;;6234579;23;20164;-90
2021/09/01 05:53:16;;;;;;;2.30;1.87;;;11.50;99.90;;;;;;6251193;23;20222;-90
2021/09/01 05:55:51;;;;;;;3.07;1.97;;;11.40;99.90;;;;;;6250717;23;20191;-90
2021/09/01 05:58:23;;;;;;;2.90;1.67;;;11.40;99.90;;;;;;6250151;23;20198;-88
2021/09/01 06:01:00;;;;;;;2.77;1.67;;;11.40;99.90;;;;;;6251445;23;20226;-90
2021/09/01 06:03:34;;;;;;;3.00;2.00;;;11.40;99.90;;;;;;6259421;23;20194;-91
2021/09/01 06:06:07;;;;;;;3.30;1.83;;;11.30;99.90;;;;;;6251092;23;20259;-90
2021/09/01 06:08:38;;;;;;;4.23;2.33;;;11.40;99.90;;;;;;6252673;23;20208;-90
2021/09/01 06:11:11;;;;;;;3.03;1.83;;;11.30;99.90;;;;;;6264661;23;20191;-90
2021/09/01 06:13:42;;;;;;;2.87;2.00;;;11.20;99.90;;;;;;6272083;22;20175;-90
2021/09/01 06:16:16;;;;;;;5.27;2.10;;;11.20;99.90;;;;;;6272227;22;20227;-88
2021/09/01 06:18:48;;;;;;;4.63;1.90;;;11.20;99.90;;;;;;6270336;22;20195;-90
2021/09/01 06:24:02;;;;;;;4.27;1.93;;;11.20;99.90;;;;;;6326686;22;20229;-90
2021/09/01 06:26:36;;;;;;;4.33;2.00;;;11.20;99.90;;;;;;6318733;22;20166;-90
2021/09/01 06:29:07;;;;;;;4.20;2.10;;;11.10;99.90;;;;;;6321219;22;20174;-91
2021/09/01 06:31:47;;;;;;;4.20;2.13;;;11.10;99.90;;;;;;6322364;22;20171;-89
2021/09/01 06:34:20;;;;;;;3.70;1.90;;;11.10;99.90;;;;;;6329690;22;20230;-90
2021/09/01 06:39:48;;;;;;;4.10;2.20;;;11.00;99.90;;;;;;6322394;22;20174;-90
2021/09/01 06:42:20;;;;;;;2.40;2.00;;;11.00;99.90;;;;;;6311633;22;20466;-90
2021/09/01 06:44:51;;;;;;;3.43;1.77;;;11.00;99.90;;;;;;6310977;22;20181;-90
2021/09/01 06:47:25;;;;;;;3.50;1.60;;;10.90;99.90;;;;;;6311141;22;20190;-90
2021/09/01 06:49:56;;;;;;;3.40;1.80;;;10.90;99.90;;;;;;6311518;22;20562;-90
2021/09/01 06:52:27;;;;;;;1.87;1.50;;;10.90;99.90;;;;;;6310429;22;20178;-90
2021/09/01 06:54:58;;;;;;;4.97;2.20;;;10.80;99.90;;;;;;6311486;22;20223;-90
2021/09/01 06:57:29;;;;;;;3.90;2.00;;;10.80;99.90;;;;;;6310750;22;20192;-90
2021/09/01 07:00:00;;;;;;;6.70;2.03;;;10.80;99.90;;;;;;6312184;22;20175;-90
2021/09/01 07:02:34;;;;;;;3.93;2.00;;;10.80;99.90;;;;;;6308794;22;20174;-90
2021/09/01 07:05:07;;;;;;;4.60;2.30;;;10.80;99.90;;;;;;6310923;22;20162;-90
2021/09/01 07:07:42;;;;;;;3.50;2.13;;;10.80;99.90;;;;;;6310565;22;20200;-89
2021/09/01 07:10:15;;;;;;;2.90;1.87;;;10.80;99.90;;;;;;6311487;22;20170;-89
2021/09/01 07:12:45;;;;;;;3.20;2.00;;;10.80;99.90;;;;;;6311128;22;20171;-90
2021/09/01 07:15:17;;;;;;;4.20;1.90;;;10.80;99.90;;;;;;6310599;22;20196;-90
2021/09/01 07:17:50;;;;;;;3.23;1.87;;;10.80;99.90;;;;;;6285108;22;20194;-89
2021/09/01 07:20:23;;;;;;;3.47;1.90;;;10.70;99.90;;;;;;6309881;22;20177;-91
2021/09/01 07:22:55;;;;;;;3.50;1.90;;;10.70;99.90;;;;;;6310506;22;20643;-89
2021/09/01 07:25:27;;;;;;;3.37;1.90;;;10.60;99.90;;;;;;6311093;22;20190;-89
2021/09/01 07:27:58;;;;;;;3.77;2.00;;;10.60;99.90;;;;;;6310541;22;20181;-89
2021/09/01 07:30:29;;;;;;;5.83;2.47;;;10.60;99.90;;;;;;6309796;22;20612;-89
2021/09/01 07:33:03;;;;;;;4.27;2.27;;;10.60;99.90;;;;;;6311287;22;20268;-89
2021/09/01 07:35:34;;;;;;;2.67;1.67;;;10.50;99.90;;;;;;6311252;22;20178;-89
2021/09/01 07:38:05;;;;;;;3.63;2.10;;;10.60;99.90;;;;;;6310949;22;20181;-89
2021/09/01 07:40:37;;;;;;;4.43;2.23;;;10.50;99.90;;;;;;6316332;22;20170;-91
2021/09/01 07:43:08;;;;;;;4.07;2.00;;;10.50;99.90;;;;;;6317289;22;20166;-89
2021/09/01 07:45:40;;;;;;;6.20;2.20;;;10.50;99.90;;;;;;6321587;22;20178;-89
2021/09/01 07:48:16;;;;;;;2.80;1.90;;;10.50;99.90;;;;;;6320405;22;20174;-89
2021/09/01 07:50:47;;;;;;;5.10;2.17;;;10.50;99.90;;;;;;6309430;22;20242;-89
2021/09/01 07:53:18;;;;;;;4.20;2.17;;;10.50;99.90;;;;;;6310443;22;20273;-90
2021/09/01 07:55:49;;;;;;;2.77;1.83;;;10.50;99.90;;;;;;6310945;22;20159;-89
2021/09/01 07:58:20;;;;;;;3.07;1.70;;;10.50;99.90;;;;;;6310856;22;20182;-90
2021/09/01 08:00:51;;;;;;;4.03;2.23;;;10.50;99.90;;;;;;6312507;22;20198;-90
2021/09/01 08:03:27;;;;;;;3.77;2.40;;;10.40;99.90;;;;;;6286510;22;20170;-91
2021/09/01 08:05:59;;;;;;;3.27;1.93;;;10.40;99.90;;;;;;6286105;22;20178;-90
2021/09/01 08:08:31;;;;;;;3.23;1.80;;;10.40;99.90;;;;;;6312853;22;20178;-89
2021/09/01 08:11:02;;;;;;;4.57;2.47;;;10.40;99.90;;;;;;6285038;22;20181;-89
2021/09/01 08:13:33;;;;;;;4.40;2.80;;;10.40;99.90;;;;;;6313099;22;20216;-89
2021/09/01 08:16:05;;;;;;;3.93;2.47;;;10.30;99.90;;;;;;6313565;22;20167;-89
2021/09/01 08:18:39;;;;;;;3.53;2.10;;;10.30;99.90;;;;;;6313190;22;20662;-89
2021/09/01 08:21:11;;;;;;;2.70;2.03;;;10.30;99.90;;;;;;6311863;22;20195;-89
2021/09/01 08:23:42;;;;;;;5.50;2.60;;;10.30;99.90;;;;;;6312666;22;20202;-90
2021/09/01 08:26:13;;;;;;;3.67;2.17;;;10.20;99.90;;;;;;6312738;22;20174;-91
2021/09/01 08:28:45;;;;;;;2.97;2.03;;;10.20;99.90;;;;;;6313432;22;20239;-89
2021/09/01 08:31:17;;;;;;;2.83;2.30;;;10.20;99.90;;;;;;6327817;22;20177;-89
2021/09/01 08:33:51;;;;;;;5.07;2.43;;;10.20;99.90;;;;;;6329823;22;20280;-90
2021/09/01 08:36:22;;;;;;;4.13;2.20;;;10.20;99.90;;;;;;6330435;22;20166;-90
2021/09/01 08:38:56;;;;;;;6.13;2.10;;;10.20;99.90;;;;;;6334844;22;20174;-90
2021/09/01 08:41:29;;;;;;;3.77;2.40;;;10.10;99.90;;;;;;6315247;22;20300;-91
2021/09/01 08:44:02;;;;;;;2.87;1.97;;;10.10;99.90;;;;;;6293981;22;20624;-91
2021/09/01 08:46:35;;;;;;;4.93;2.13;;;10.10;99.90;;;;;;6317246;22;20166;-91
2021/09/01 08:49:08;;;;;;;2.63;2.17;;;10.00;99.90;;;;;;6313748;22;20162;-92
2021/09/01 08:51:39;;;;;;;4.57;2.23;;;10.00;99.90;;;;;;6313999;22;20182;-91
2021/09/01 08:54:10;;;;;;;4.23;2.57;;;10.00;99.90;;;;;;6319757;22;20174;-90
2021/09/01 08:56:42;;;;;;;3.17;2.17;;;10.00;99.90;;;;;;6318678;22;20170;-90
2021/09/01 08:59:13;;;;;;;5.53;2.30;;;10.00;99.90;;;;;;6315249;22;20178;-90
2021/09/01 09:01:46;;;;;;;3.50;2.50;;;10.00;99.90;;;;;;6312707;22;20241;-90
2021/09/01 09:04:23;;;;;;;4.97;2.50;;;10.00;99.90;;;;;;6314191;22;20170;-90
2021/09/01 09:06:56;;;;;;;3.47;2.10;;;10.00;99.90;;;;;;6313376;22;20542;-90
2021/09/01 09:09:28;;;;;;;3.37;2.37;;;10.00;99.90;;;;;;6313085;22;20193;-90
2021/09/01 09:12:02;;;;;;;4.30;2.00;;;9.90;99.90;;;;;;6311686;22;20179;-90
2021/09/01 09:14:36;;;;;;;3.33;2.70;;;9.90;99.90;;;;;;6312913;22;20178;-89
2021/09/01 09:17:10;;;;;;;4.20;2.40;;;9.90;99.90;;;;;;6313556;22;20200;-90
2021/09/01 09:19:51;;;;;;;3.30;2.20;;;9.90;99.90;;;;;;6312633;22;20181;-90
2021/09/01 09:22:26;;;;;;;3.73;2.37;;;9.80;99.90;;;;;;6311859;22;20233;-90
2021/09/01 09:25:14;;;;;;;4.83;2.70;;;9.80;99.90;;;;;;6312694;22;20201;-90
2021/09/01 09:27:49;;;;;;;5.17;2.17;;;9.80;99.90;;;;;;6285669;22;20200;-90
2021/09/01 09:30:46;;;;;;;2.67;2.00;;;9.80;99.90;;;;;;6311310;22;20193;-91
2021/09/01 09:33:18;;;;;;;4.57;2.43;;;9.70;99.90;;;;;;6312468;22;20189;-89
2021/09/01 09:35:54;;;;;;;4.93;2.80;;;9.70;99.90;;;;;;6309578;22;20170;-90
2021/09/01 09:38:34;;;;;;;3.10;2.10;;;9.70;99.90;;;;;;6313237;22;20172;-90
2021/09/01 09:41:07;;;;;;;5.10;2.40;;;9.70;99.90;;;;;;6285232;22;20170;-91
2021/09/01 09:43:39;;;;;;;4.03;2.20;;;9.60;99.90;;;;;;6312758;22;20678;-91
2021/09/01 09:46:12;;;;;;;6.70;2.57;;;9.50;99.90;;;;;;6286575;22;20198;-91
2021/09/01 09:48:45;;;;;;;5.83;2.73;;;9.50;99.90;;;;;;6312248;22;20170;-90
2021/09/01 09:51:20;;;;;;;4.50;2.30;;;9.50;99.90;;;;;;6311234;22;20574;-91
2021/09/01 09:53:53;;;;;;;3.23;2.07;;;9.50;99.90;;;;;;6312397;22;20177;-91
2021/09/01 09:56:29;;;;;;;5.37;2.93;;;9.50;99.90;;;;;;6286286;22;20198;-91
2021/09/01 09:59:01;;;;;;;2.97;2.43;;;9.20;99.90;;;;;;6313264;22;20158;-89
2021/09/01 10:01:32;;;;;;;5.57;2.57;;;9.30;99.90;;;;;;6312123;22;20181;-89
2021/09/01 10:04:04;;;;;;;4.47;2.27;;;9.30;99.90;;;;;;6313222;22;20174;-89
2021/09/01 10:06:38;;;;;;;7.87;2.80;;;9.20;99.90;;;;;;6318733;22;20168;-91
2021/09/01 10:09:10;;;;;;;5.03;2.70;;;9.20;99.90;;;;;;6312203;22;20185;-89
2021/09/01 10:11:41;;;;;;;3.67;2.30;;;9.20;99.90;;;;;;6309936;22;20177;-88
2021/09/01 10:14:18;;;;;;;5.60;2.70;;;9.20;99.90;;;;;;6311150;22;20180;-88
2021/09/01 10:16:55;;;;;;;4.00;2.73;;;9.20;99.90;;;;;;6311587;22;20627;-90
2021/09/01 10:19:30;;;;;;;3.30;2.60;;;9.30;99.90;;;;;;6311692;22;20185;-89
2021/09/01 10:22:09;;;;;;;5.67;2.50;;;9.10;99.90;;;;;;6309592;22;20248;-88
2021/09/01 10:24:44;;;;;;;3.13;2.47;;;9.00;99.90;;;;;;6310839;22;20208;-88
2021/09/01 10:27:17;;;;;;;4.50;2.47;;;9.10;99.90;;;;;;6309979;22;20181;-89
2021/09/01 10:29:50;;;;;;;5.90;2.87;;;9.10;99.90;;;;;;6311140;22;20174;-89
2021/09/01 10:32:27;;;;;;;3.93;2.50;;;9.10;99.90;;;;;;6311348;22;20581;-89
2021/09/01 10:35:32;;;;;;;3.33;2.40;;;9.20;99.90;;;;;;6311770;22;20184;-89
2021/09/01 10:38:32;;;;;;;5.20;2.30;;;9.10;99.90;;;;;;6312219;22;20244;-89
2021/09/01 10:41:08;;;;;;;3.30;2.20;;;9.10;99.90;;;;;;6284706;22;20593;-89
2021/09/01 10:43:40;;;;;;;4.40;2.20;;;9.10;99.90;;;;;;6313362;22;20199;-90
2021/09/01 10:46:12;;;;;;;4.00;2.60;;;9.00;99.90;;;;;;6330113;22;20166;-90
2021/09/01 10:49:00;;;;;;;4.90;2.67;;;9.10;99.90;;;;;;6331369;22;20158;-89
2021/09/01 10:51:32;;;;;;;3.80;2.80;;;9.00;99.90;;;;;;6327013;22;20215;-89
2021/09/01 10:54:31;;;;;;;6.37;2.50;;;9.00;99.90;;;;;;6316313;22;20612;-90
2021/09/01 10:57:04;;;;;;;8.60;3.10;;;8.90;99.90;;;;;;6318167;22;20179;-90
2021/09/01 10:59:40;;;;;;;5.20;2.70;;;8.90;99.90;;;;;;6317552;22;20189;-90
2021/09/01 11:02:13;;;;;;;7.20;2.37;;;8.90;99.90;;;;;;6326058;22;20175;-89
2021/09/01 11:04:49;;;;;;;4.57;2.77;;;8.80;99.90;;;;;;6318753;22;20251;-89
2021/09/01 11:07:25;;;;;;;3.47;2.20;;;8.80;99.90;;;;;;6315806;22;20177;-90
2021/09/01 11:10:00;;;;;;;3.57;2.70;;;8.80;99.90;;;;;;6329018;22;20150;-88
2021/09/01 11:12:35;;;;;;;3.73;2.67;;;8.80;99.90;;;;;;6332994;22;20212;-90
2021/09/01 11:15:07;;;;;;;3.77;2.53;;;8.80;99.90;;;;;;6333945;22;20161;-89
2021/09/01 11:17:38;;;;;;;3.47;2.30;;;8.80;99.90;;;;;;6301338;22;20185;-89
2021/09/01 11:20:11;;;;;;;3.63;2.60;;;8.80;99.90;;;;;;6321603;22;20162;-89
2021/09/01 11:22:44;;;;;;;4.53;2.47;;;8.80;99.90;;;;;;6326234;22;20193;-89
2021/09/01 11:25:17;;;;;;;3.67;2.87;;;8.80;99.90;;;;;;6317002;22;20193;-89
2021/09/01 11:27:52;;;;;;;3.83;2.23;;;8.80;99.90;;;;;;6318007;22;20182;-89
2021/09/01 11:30:24;;;;;;;2.93;2.20;;;8.80;99.90;;;;;;6315950;22;20166;-89
2021/09/01 11:32:58;;;;;;;4.00;2.00;;;8.80;99.90;;;;;;6323117;22;20190;-88
2021/09/01 11:35:30;;;;;;;3.30;2.33;;;8.70;99.90;;;;;;6323041;22;20163;-89
2021/09/01 11:38:02;;;;;;;4.97;2.67;;;8.70;99.90;;;;;;6312850;22;20190;-89
2021/09/01 11:40:37;;;;;;;5.63;2.60;;;8.70;99.90;;;;;;6312699;22;20174;-89
2021/09/01 11:43:10;;;;;;;3.30;2.60;;;8.70;99.90;;;;;;6286425;22;20196;-89
2021/09/01 11:45:46;;;;;;;4.33;2.60;;;8.60;99.90;;;;;;6314563;22;20201;-90
2021/09/01 11:48:18;;;;;;;5.07;2.63;;;8.60;99.90;;;;;;6327677;22;20185;-90
2021/09/01 11:50:52;;;;;;;6.03;2.60;;;8.60;99.90;;;;;;6323327;22;20184;-90
2021/09/01 11:53:49;;;;;;;3.37;2.43;;;8.60;99.90;;;;;;6297894;22;20182;-89
2021/09/01 11:56:22;;;;;;;3.17;2.23;;;8.60;99.90;;;;;;6329224;22;20174;-90
2021/09/01 11:59:02;;;;;;;4.33;2.57;;;8.50;99.90;;;;;;6330772;22;20162;-90
2021/09/01 12:01:37;;;;;;;4.77;2.97;;;8.50;99.90;;;;;;6327637;22;20178;-90
2021/09/01 12:04:10;;;;;;;3.10;2.20;;;8.50;99.90;;;;;;6329283;22;20180;-89
2021/09/01 12:07:02;;;;;;;3.80;2.73;;;8.50;99.90;;;;;;6312479;22;20183;-90
2021/09/01 12:09:36;;;;;;;2.80;2.30;;;8.50;99.90;;;;;;6312392;22;20555;-89
2021/09/01 12:12:14;;;;;;;3.37;2.43;;;8.50;99.90;;;;;;6311222;22;20185;-90
2021/09/01 12:14:46;;;;;;;4.83;2.53;;;8.50;99.90;;;;;;6285555;22;20169;-89
2021/09/01 12:17:21;;;;;;;3.67;2.80;;;8.50;99.90;;;;;;6312748;22;20597;-90
2021/09/01 12:19:58;;;;;;;4.07;2.10;;;8.50;99.90;;;;;;6311637;22;20211;-89
2021/09/01 12:22:35;;;;;;;5.23;2.67;;;8.50;99.90;;;;;;6310359;22;20223;-89
2021/09/01 12:25:08;;;;;;;5.33;2.53;;;8.50;99.90;;;;;;6312603;22;20202;-90
2021/09/01 12:28:02;;;;;;;3.80;2.70;;;8.50;99.90;;;;;;6312290;22;20211;-89
2021/09/01 12:30:35;;;;;;;3.83;2.70;;;8.50;99.90;;;;;;6311698;22;20262;-89
2021/09/01 12:33:11;;;;;;;5.27;2.43;;;8.50;99.90;;;;;;6311670;22;20204;-89
2021/09/01 12:35:43;;;;;;;4.63;2.90;;;8.50;99.90;;;;;;6312526;22;20193;-89
2021/09/01 12:38:24;;;;;;;3.67;2.70;;;8.40;99.90;;;;;;6312272;22;20212;-89
2021/09/01 12:40:56;;;;;;;3.70;2.80;;;8.40;99.90;;;;;;6311645;22;20181;-89
2021/09/01 12:43:41;;;;;;;4.93;2.80;;;8.40;99.90;;;;;;6312381;22;20194;-90
2021/09/01 12:46:13;;;;;;;4.30;2.40;;;8.40;99.90;;;;;;6285173;22;20197;-90
2021/09/01 12:48:44;;;;;;;2.93;2.40;;;8.30;99.90;;;;;;6285766;22;20253;-90
2021/09/01 12:51:15;;;;;;;5.40;2.87;;;8.30;99.90;;;;;;6312072;22;20191;-90
2021/09/01 12:54:01;;;;;;;3.60;2.37;;;8.30;99.90;;;;;;6314237;22;20177;-90
2021/09/01 12:56:31;;;;;;;2.50;2.30;;;8.30;99.90;;;;;;6299828;22;20182;-90
2021/09/01 12:59:04;;;;;;;6.37;2.83;;;8.30;99.90;;;;;;6333885;22;20174;-90
2021/09/01 13:01:36;;;;;;;5.00;2.43;;;8.30;99.90;;;;;;6330325;22;20184;-90
2021/09/01 13:04:07;;;;;;;3.67;2.40;;;8.20;99.90;;;;;;6289214;22;20267;-90
2021/09/01 13:06:38;;;;;;;3.20;2.40;;;8.20;99.90;;;;;;6312938;22;20279;-90
2021/09/01 13:09:10;;;;;;;3.90;2.30;;;8.20;99.90;;;;;;6286085;22;20209;-90
2021/09/01 13:11:43;;;;;;;5.20;2.43;;;8.20;99.90;;;;;;6312456;22;20568;-90
2021/09/01 13:14:16;;;;;;;2.87;2.20;;;8.20;99.90;;;;;;6314145;22;20203;-91
2021/09/01 13:16:48;;;;;;;3.50;2.50;;;8.30;99.90;;;;;;6312815;22;20206;-90
2021/09/01 13:19:22;;;;;;;3.80;2.80;;;8.20;99.90;;;;;;6313099;22;20168;-92
2021/09/01 13:21:53;;;;;;;3.33;2.40;;;8.20;99.90;;;;;;6310902;22;20204;-90
2021/09/01 13:24:24;;;;;;;3.43;2.23;;;8.10;99.90;;;;;;6312592;22;20529;-90
2021/09/01 13:26:55;;;;;;;5.20;2.70;;;8.10;99.90;;;;;;6313183;22;20177;-90
2021/09/01 13:29:30;;;;;;;3.77;2.60;;;8.10;99.90;;;;;;6312848;22;20202;-90
2021/09/01 13:32:01;;;;;;;3.50;2.37;;;8.10;99.90;;;;;;6311175;22;20176;-90
2021/09/01 13:34:32;;;;;;;4.40;2.67;;;8.10;99.90;;;;;;6312188;22;20197;-90
2021/09/01 13:37:05;;;;;;;5.17;2.60;;;8.00;99.90;;;;;;6312729;22;20181;-90
2021/09/01 13:39:36;;;;;;;5.13;3.03;;;8.00;99.90;;;;;;6312017;22;20176;-90
2021/09/01 13:42:08;;;;;;;4.20;2.27;;;8.00;99.90;;;;;;6310521;22;20190;-90
2021/09/01 13:44:42;;;;;;;3.40;2.70;;;8.00;99.90;;;;;;6312638;22;20200;-90
2021/09/01 13:47:13;;;;;;;6.63;2.43;;;8.00;99.90;;;;;;6314852;22;20632;-90
2021/09/01 13:49:44;;;;;;;4.17;2.83;;;8.00;99.90;;;;;;6312071;22;20181;-90
2021/09/01 13:52:16;;;;;;;4.47;2.60;;;8.00;99.90;;;;;;6311110;22;20190;-90
2021/09/01 13:54:50;;;;;;;3.27;2.80;;;8.00;99.90;;;;;;6311818;22;20174;-89
2021/09/01 13:57:22;;;;;;;6.27;2.80;;;8.00;99.90;;;;;;6311285;22;20187;-90
2021/09/01 13:59:55;;;;;;;2.83;2.00;;;8.00;99.90;;;;;;6311608;22;20170;-91
2021/09/01 14:02:27;;;;;;;3.10;2.30;;;8.00;99.90;;;;;;6310770;22;20178;-90